Global Glory — 3FHR8 — position and weather

sailwx.info

Track history (hours):
 
Tides and Currents Weather Stations Pressure Air Temp Water Temp Dewpoint Dewpoint Depression Visibility Wind Speed Wind Dir Waves Ship Positions

Global Glory

Last reported at 2015-Apr-09 13:13 UTC. Time now 2015-Apr-18 15:11 UTC.
Position N 24°37' E 119°15'.
Warning: this ship's position is 9 days out of date.

Length 189 m; draft 11.8 m.

Type: Cargo ship. MMSI: 354338000.

Date/timePositionNaut miles runAvg speedWind from/ knotsBaromVisibWave heightAir tempDewpointWater temp
2015-Apr-09 13:13N 24°37' E 119°15'710.4
2015-Apr-09 12:33N 24°33' E 119°10'57 9.2
2015-Apr-09 06:22N 23°56' E 118°23'56 9.6
2015-Apr-09 00:33N 23°19' E 117°37'8 8.3
2015-Apr-08 23:33N 23°14' E 117°30'  
2015-Apr-02 10:31N 01°16' E 104°10'1010.5
2015-Apr-02 09:33N 01°15' E 104°00'4 1.7
2015-Apr-02 07:23N 01°17' E 103°57'0 0.0
2015-Apr-02 06:29N 01°17' E 103°57'0 0.0
2015-Apr-02 04:11N 01°17' E 103°57'0 0.2
2015-Apr-02 03:17N 01°17' E 103°57'0 0.0
2015-Apr-02 02:29N 01°17' E 103°57'0 0.3
2015-Apr-02 01:33N 01°17' E 103°57'3 2.8
2015-Apr-02 00:33N 01°14' E 103°57'8 5.8
2015-Apr-01 23:06N 01°10' E 103°49'68 8.5
2015-Apr-01 15:08N 01°38' E 102°47'710.8
2015-Apr-01 14:29N 01°41' E 102°41'  
Track history (hours):
 
Tides and Currents Weather Stations Pressure Air Temp Water Temp Dewpoint Dewpoint Depression Visibility Wind Speed Wind Dir Waves Ship Positions

Global Glory

Last reported at 2015-Apr-09 13:13 UTC. Time now 2015-Apr-18 15:11 UTC.
Position N 24°37' E 119°15'.
Warning: this ship's position is 9 days out of date.

Length 189 m; draft 11.8 m.

Type: Cargo ship. MMSI: 354338000.

Date/timePositionNaut miles runAvg speedWind from/ knotsBaromVisibWave heightAir tempDewpointWater temp
2015-Apr-09 13:13N 24°37' E 119°15'710.4
2015-Apr-09 12:33N 24°33' E 119°10'57 9.2
2015-Apr-09 06:22N 23°56' E 118°23'56 9.6
2015-Apr-09 00:33N 23°19' E 117°37'8 8.3
2015-Apr-08 23:33N 23°14' E 117°30'  
2015-Apr-02 10:31N 01°16' E 104°10'1010.5
2015-Apr-02 09:33N 01°15' E 104°00'4 1.7
2015-Apr-02 07:23N 01°17' E 103°57'0 0.0
2015-Apr-02 06:29N 01°17' E 103°57'0 0.0
2015-Apr-02 04:11N 01°17' E 103°57'0 0.2
2015-Apr-02 03:17N 01°17' E 103°57'0 0.0
2015-Apr-02 02:29N 01°17' E 103°57'0 0.3
2015-Apr-02 01:33N 01°17' E 103°57'3 2.8
2015-Apr-02 00:33N 01°14' E 103°57'8 5.8
2015-Apr-01 23:06N 01°10' E 103°49'68 8.5
2015-Apr-01 15:08N 01°38' E 102°47'710.8
2015-Apr-01 14:29N 01°41' E 102°41'  

Dump ship's entire track history